createdAt,value
2022-10-11T00:01:28.497Z,102331.50
2022-10-11T00:03:56.930Z,102325.53
2022-10-11T00:06:25.242Z,102323.03
2022-10-11T00:08:53.510Z,102308.00
2022-10-11T00:11:23.240Z,102311.63
2022-10-11T00:13:51.487Z,102322.50
2022-10-11T00:16:19.462Z,102319.91
2022-10-11T00:18:47.700Z,102310.25
2022-10-11T00:21:17.249Z,102303.19
2022-10-11T00:23:46.618Z,102311.47
2022-10-11T00:26:15.225Z,102312.31
2022-10-11T00:28:47.756Z,102297.16
2022-10-11T00:31:17.102Z,102305.06
2022-10-11T00:33:45.250Z,102324.88
2022-10-11T00:36:17.641Z,102312.72
2022-10-11T00:38:46.662Z,102300.22
2022-10-11T00:41:16.249Z,102309.19
2022-10-11T00:43:46.542Z,102316.25
2022-10-11T00:46:30.808Z,102299.47
2022-10-11T00:49:04.331Z,102297.41
2022-10-11T00:51:41.207Z,102307.13
2022-10-11T00:54:14.907Z,102304.47
2022-10-11T00:56:45.804Z,102292.06
2022-10-11T00:59:24.561Z,102306.28
2022-10-11T01:01:53.140Z,102307.75
2022-10-11T01:04:21.404Z,102299.63
2022-10-11T01:06:50.709Z,102302.41
2022-10-11T01:09:21.447Z,102298.16
2022-10-11T01:11:54.209Z,102296.44
2022-10-11T01:14:56.636Z,102296.59
2022-10-11T01:17:33.371Z,102309.09
2022-10-11T01:20:23.813Z,102310.84
2022-10-11T01:23:17.951Z,102295.06
2022-10-11T01:26:01.382Z,102294.22
2022-10-11T01:28:43.756Z,102301.44
2022-10-11T01:31:21.015Z,102292.56
2022-10-11T01:33:58.390Z,102290.84
2022-10-11T01:36:34.372Z,102301.34
2022-10-11T01:39:08.090Z,102290.75
2022-10-11T01:41:40.600Z,102285.41
2022-10-11T01:44:11.033Z,102286.44
2022-10-11T01:46:41.966Z,102293.66
2022-10-11T01:49:10.563Z,102290.91
2022-10-11T01:51:47.141Z,102284.78
2022-10-11T01:54:49.896Z,102283.06
2022-10-11T01:57:51.426Z,102283.94
2022-10-11T02:00:22.127Z,102289.19
2022-10-11T02:03:19.289Z,102292.03
2022-10-11T02:05:53.247Z,102280.56
2022-10-11T02:08:28.485Z,102281.41
2022-10-11T02:11:06.117Z,102285.19
2022-10-11T02:13:40.130Z,102286.94
2022-10-11T02:16:12.907Z,102286.94
2022-10-11T02:18:47.156Z,102288.81
2022-10-11T02:21:18.133Z,102283.47
2022-10-11T02:23:53.085Z,102281.91
2022-10-11T02:26:23.289Z,102287.44
2022-10-11T02:28:54.513Z,102289.31
2022-10-11T02:31:25.301Z,102280.44
2022-10-11T02:34:04.327Z,102278.63
2022-10-11T02:36:39.434Z,102280.44
2022-10-11T02:39:16.615Z,102275.03
2022-10-11T02:41:45.062Z,102280.88
2022-10-11T02:44:18.017Z,102285.63
2022-10-11T02:46:46.967Z,102287.00
2022-10-11T02:49:18.353Z,102285.44
2022-10-11T02:51:46.622Z,102285.59
2022-10-11T02:54:14.914Z,102277.91
2022-10-11T02:56:43.431Z,102282.31
2022-10-11T02:59:11.956Z,102274.44
2022-10-11T03:01:40.262Z,102282.44
2022-10-11T03:04:08.466Z,102271.16
2022-10-11T03:06:38.954Z,102269.63
2022-10-11T03:09:07.920Z,102260.28
2022-10-11T03:11:36.183Z,102271.31
2022-10-11T03:14:04.459Z,102275.09
2022-10-11T03:16:32.576Z,102260.25
2022-10-11T03:19:01.129Z,102276.38
2022-10-11T03:21:29.365Z,102258.69
2022-10-11T03:23:59.063Z,102256.03
2022-10-11T03:26:30.407Z,102265.94
2022-10-11T03:28:58.858Z,102258.69
2022-10-11T03:31:27.789Z,102256.81
2022-10-11T03:33:56.070Z,102255.03
2022-10-11T03:36:25.464Z,102252.34
2022-10-11T03:38:53.994Z,102250.63
2022-10-11T03:41:26.768Z,102266.78
2022-10-11T03:43:55.242Z,102257.16
2022-10-11T03:46:24.510Z,102254.72
2022-10-11T03:48:52.777Z,102253.91
2022-10-11T03:51:21.003Z,102254.22
2022-10-11T03:53:49.330Z,102263.22
2022-10-11T03:56:17.909Z,102263.47
2022-10-11T03:58:47.840Z,102269.75
2022-10-11T04:01:16.380Z,102262.69
2022-10-11T04:03:46.944Z,102267.88
2022-10-11T04:06:15.469Z,102255.47
2022-10-11T04:08:43.836Z,102267.94
2022-10-11T04:11:11.975Z,102276.97
2022-10-11T04:13:40.143Z,102270.13
2022-10-11T04:16:10.066Z,102280.22
2022-10-11T04:18:41.004Z,102280.63
2022-10-11T04:21:09.448Z,102282.78
2022-10-11T04:23:38.987Z,102278.91
2022-10-11T04:26:10.175Z,102289.00
2022-10-11T04:28:38.349Z,102284.69
2022-10-11T04:31:08.113Z,102283.09
2022-10-11T04:33:37.766Z,102275.44
2022-10-11T04:36:07.325Z,102284.44
2022-10-11T04:38:36.517Z,102283.72
2022-10-11T04:41:09.306Z,102284.72
2022-10-11T04:43:37.897Z,102290.75
2022-10-11T04:46:07.328Z,102285.50
2022-10-11T04:48:39.214Z,102298.97
2022-10-11T04:51:07.750Z,102299.25
2022-10-11T04:53:35.801Z,102307.41
2022-10-11T04:56:06.421Z,102308.25
2022-10-11T04:58:36.251Z,102307.41
2022-10-11T05:01:04.725Z,102307.41
2022-10-11T05:03:33.680Z,102306.59
2022-10-11T05:06:05.937Z,102300.63
2022-10-11T05:08:34.488Z,102316.66
2022-10-11T05:11:06.020Z,102311.41
2022-10-11T05:13:36.057Z,102309.63
2022-10-11T05:16:10.334Z,102299.88
2022-10-11T05:18:39.072Z,102306.97
2022-10-11T05:21:10.559Z,102302.63
2022-10-11T05:23:38.739Z,102297.44
2022-10-11T05:26:07.885Z,102287.88
2022-10-11T05:28:36.748Z,102293.44
2022-10-11T05:31:05.086Z,102291.06
2022-10-11T05:33:33.886Z,102283.44
2022-10-11T05:36:03.258Z,102291.75
2022-10-11T05:38:33.506Z,102285.78
2022-10-11T05:41:02.340Z,102281.41
2022-10-11T05:43:32.817Z,102284.97
2022-10-11T05:46:00.967Z,102288.44
2022-10-11T05:48:32.243Z,102288.44
2022-10-11T05:51:02.341Z,102296.22
2022-10-11T05:53:31.381Z,102284.56
2022-10-11T05:56:01.691Z,102291.75
2022-10-11T05:58:30.506Z,102288.16
2022-10-11T06:00:59.022Z,102275.13
2022-10-11T06:03:27.160Z,102286.72
2022-10-11T06:06:03.177Z,102286.84
2022-10-11T06:08:33.823Z,102291.38
2022-10-11T06:11:12.447Z,102291.41
2022-10-11T06:13:40.862Z,102299.34
2022-10-11T06:16:09.431Z,102307.38
2022-10-11T06:18:37.550Z,102293.19
2022-10-11T06:21:06.071Z,102306.41
2022-10-11T06:23:34.641Z,102304.53
2022-10-11T06:26:07.395Z,102308.91
2022-10-11T06:28:39.099Z,102317.03
2022-10-11T06:31:07.966Z,102307.34
2022-10-11T06:33:41.049Z,102310.00
2022-10-11T06:36:13.111Z,102310.13
2022-10-11T06:38:45.004Z,102313.56
2022-10-11T06:41:18.879Z,102313.56
2022-10-11T06:43:51.094Z,102305.66
2022-10-11T06:46:24.094Z,102299.59
2022-10-11T06:48:53.237Z,102310.41
2022-10-11T06:51:23.405Z,102316.66
2022-10-11T06:53:55.781Z,102314.78
2022-10-11T06:56:25.326Z,102304.03
2022-10-11T06:58:59.203Z,102302.94
2022-10-11T07:01:28.743Z,102302.81
2022-10-11T07:04:00.842Z,102301.66
2022-10-11T07:06:30.973Z,102301.53
2022-10-11T07:09:01.799Z,102300.41
2022-10-11T07:11:32.820Z,102301.94
2022-10-11T07:14:08.876Z,102307.31
2022-10-11T07:16:38.016Z,102315.16
2022-10-11T07:19:08.260Z,102302.47
2022-10-11T07:21:38.062Z,102306.44
2022-10-11T07:24:06.983Z,102305.28
2022-10-11T07:26:38.603Z,102310.31
2022-10-11T07:29:10.802Z,102304.00
2022-10-11T07:31:40.951Z,102315.16
2022-10-11T07:34:12.988Z,102300.72
2022-10-11T07:36:41.081Z,102310.13
2022-10-11T07:39:10.133Z,102307.22
2022-10-11T07:41:45.367Z,102311.25
2022-10-11T07:44:25.357Z,102315.50
2022-10-11T07:46:53.842Z,102319.59
2022-10-11T07:49:22.170Z,102318.50
2022-10-11T07:51:57.453Z,102323.56
2022-10-11T07:54:25.736Z,102328.53
2022-10-11T07:56:54.316Z,102334.19
2022-10-11T07:59:25.614Z,102324.03
2022-10-11T08:01:55.534Z,102335.00
2022-10-11T08:04:23.967Z,102340.53
2022-10-11T08:06:57.227Z,102343.59
2022-10-11T08:09:27.777Z,102326.41
2022-10-11T08:11:56.158Z,102341.81
2022-10-11T08:14:29.095Z,102342.34
2022-10-11T08:16:57.420Z,102330.19
2022-10-11T08:19:29.616Z,102334.13
2022-10-11T08:21:59.414Z,102338.75
2022-10-11T08:24:32.546Z,102340.88
2022-10-11T08:27:05.579Z,102343.06
2022-10-11T08:29:35.597Z,102339.69
2022-10-11T08:32:04.491Z,102333.00
2022-10-11T08:34:32.964Z,102336.78
2022-10-11T08:37:04.428Z,102349.34
2022-10-11T08:39:35.695Z,102350.47
2022-10-11T08:42:11.002Z,102345.97
2022-10-11T08:45:10.023Z,102339.66
2022-10-11T08:47:42.375Z,102345.84
2022-10-11T08:50:18.430Z,102342.28
2022-10-11T08:52:50.705Z,102339.66
2022-10-11T08:55:26.772Z,102349.28
2022-10-11T08:57:57.713Z,102342.25
2022-10-11T09:00:32.122Z,102344.84
2022-10-11T09:03:11.855Z,102343.88
2022-10-11T09:06:04.407Z,102334.13
2022-10-11T09:08:42.917Z,102346.63
2022-10-11T09:11:18.391Z,102337.06
2022-10-11T09:14:03.400Z,102337.94
2022-10-11T09:16:43.551Z,102339.94
2022-10-11T09:19:33.531Z,102336.66
2022-10-11T09:22:09.662Z,102342.72
2022-10-11T09:24:52.968Z,102343.84
2022-10-11T09:27:49.919Z,102339.38
2022-10-11T09:30:16.347Z,102342.19
2022-10-11T09:32:52.667Z,102338.16
2022-10-11T09:35:22.538Z,102337.41
2022-10-11T09:38:01.791Z,102341.63
2022-10-11T09:40:46.059Z,102336.34
2022-10-11T09:43:14.813Z,102340.28
2022-10-11T09:45:49.136Z,102341.34
2022-10-11T09:48:25.073Z,102345.97
2022-10-11T09:50:56.008Z,102346.19
2022-10-11T09:53:55.036Z,102347.47
2022-10-11T09:56:24.200Z,102348.88
2022-10-11T09:59:11.319Z,102356.25
2022-10-11T10:01:39.873Z,102365.31
2022-10-11T10:04:12.643Z,102355.81
2022-10-11T10:06:41.882Z,102355.78
2022-10-11T10:09:32.248Z,102348.47
2022-10-11T10:12:00.458Z,102347.91
2022-10-11T10:14:31.628Z,102352.97
2022-10-11T10:17:03.246Z,102356.28
2022-10-11T10:19:44.506Z,102351.69
2022-10-11T10:22:18.948Z,102349.50
2022-10-11T10:24:49.176Z,102344.63
2022-10-11T10:27:21.651Z,102343.06
2022-10-11T10:30:14.726Z,102344.44
2022-10-11T10:32:50.284Z,102354.84
2022-10-11T10:35:31.131Z,102339.81
2022-10-11T10:38:27.074Z,102335.50
2022-10-11T10:40:59.546Z,102337.47
2022-10-11T10:43:30.885Z,102329.44
2022-10-11T10:46:15.943Z,102336.84
2022-10-11T10:52:33.698Z,102332.69
2022-10-11T10:55:22.232Z,102333.69
2022-10-11T10:58:09.802Z,102327.63
2022-10-11T11:00:47.292Z,102325.69
2022-10-11T11:03:23.758Z,102323.00
2022-10-11T11:06:01.257Z,102329.38
2022-10-11T11:08:46.876Z,102326.31
2022-10-11T11:11:33.851Z,102319.81
2022-10-11T11:14:12.668Z,102307.84
2022-10-11T11:16:50.165Z,102303.94
2022-10-11T11:19:31.454Z,102310.78
2022-10-11T11:22:32.697Z,102300.53
2022-10-11T11:25:13.551Z,102298.25
2022-10-11T11:27:51.942Z,102294.97
2022-10-11T11:30:26.704Z,102292.38
2022-10-11T11:33:04.549Z,102284.69
2022-10-11T11:35:40.971Z,102276.53
2022-10-11T11:38:46.340Z,102280.31
2022-10-11T11:41:22.277Z,102272.97
2022-10-11T11:44:02.843Z,102270.47
2022-10-11T11:46:35.310Z,102259.69
2022-10-11T11:49:45.975Z,102263.41
2022-10-11T11:53:48.431Z,102256.22
2022-10-11T11:56:00.901Z,102256.94
2022-10-11T11:59:23.844Z,102250.91
2022-10-11T12:02:41.318Z,102240.81
2022-10-11T12:05:10.195Z,102228.06
2022-10-11T12:08:00.141Z,102238.47
2022-10-11T12:10:33.001Z,102227.72
2022-10-11T12:13:21.498Z,102225.69
2022-10-11T12:16:40.133Z,102229.13
2022-10-11T12:19:15.673Z,102218.22
2022-10-11T12:21:45.709Z,102214.31
2022-10-11T12:24:23.803Z,102209.69
2022-10-11T12:26:56.149Z,102197.84
2022-10-11T12:29:54.787Z,102205.16
2022-10-11T12:33:20.608Z,102193.31
2022-10-11T12:36:05.879Z,102194.16
2022-10-11T12:42:58.965Z,102191.13
2022-10-11T12:45:54.294Z,102187.16
2022-10-11T12:48:48.116Z,102180.88
2022-10-11T12:51:35.360Z,102182.28
2022-10-11T12:54:47.468Z,102185.38
2022-10-11T12:57:42.558Z,102170.53
2022-10-11T13:00:28.048Z,102179.06
2022-10-11T13:02:57.528Z,102176.53
2022-10-11T13:05:29.085Z,102173.47
2022-10-11T13:08:00.444Z,102173.03
2022-10-11T13:10:34.441Z,102161.94
2022-10-11T13:13:04.656Z,102168.22
2022-10-11T13:15:33.113Z,102162.56
2022-10-11T13:18:02.100Z,102168.63
2022-10-11T13:20:32.415Z,102166.97
2022-10-11T13:23:24.549Z,102167.06
2022-10-11T13:25:54.036Z,102161.94
2022-10-11T13:28:23.150Z,102159.31
2022-10-11T13:30:54.412Z,102155.69
2022-10-11T13:33:26.602Z,102161.38
2022-10-11T13:35:55.193Z,102158.75
2022-10-11T13:38:28.477Z,102162.41
2022-10-11T13:40:58.159Z,102153.16
2022-10-11T13:43:31.485Z,102144.78
2022-10-11T13:46:01.417Z,102151.81
2022-10-11T13:48:32.105Z,102149.94
2022-10-11T13:51:07.802Z,102139.22
2022-10-11T13:54:04.998Z,102147.28
2022-10-11T13:56:39.236Z,102144.63
2022-10-11T13:59:07.958Z,102145.09
2022-10-11T14:01:45.058Z,102137.22
2022-10-11T14:04:16.185Z,102139.59
2022-10-11T14:06:47.481Z,102134.72
2022-10-11T14:09:28.344Z,102134.88
2022-10-11T14:11:59.256Z,102129.97
2022-10-11T14:14:44.555Z,102140.47
2022-10-11T14:17:18.766Z,102134.31
2022-10-11T14:20:08.667Z,102133.06
2022-10-11T14:22:45.088Z,102130.00
2022-10-11T14:25:18.163Z,102131.84
2022-10-11T14:27:55.503Z,102121.44
2022-10-11T14:30:26.935Z,102115.56
2022-10-11T14:36:05.572Z,102122.91
2022-10-11T14:38:34.174Z,102129.41
2022-10-11T14:41:12.800Z,102122.69
2022-10-11T14:43:59.382Z,102124.59
2022-10-11T14:47:25.221Z,102118.50
2022-10-11T14:49:32.710Z,102115.53
2022-10-11T14:52:06.766Z,102103.00
2022-10-11T14:54:35.910Z,102110.44
2022-10-11T14:57:06.086Z,102106.38
2022-10-11T14:59:40.990Z,102100.59
2022-10-11T15:02:23.877Z,102096.09
2022-10-11T15:05:08.262Z,102094.22
2022-10-11T15:07:52.538Z,102095.06
2022-10-11T15:10:23.886Z,102093.53
2022-10-11T15:12:55.458Z,102080.66
2022-10-11T15:15:33.243Z,102080.63
2022-10-11T15:18:02.719Z,102083.75
2022-10-11T15:20:41.982Z,102081.13
2022-10-11T15:23:18.717Z,102073.41
2022-10-11T15:25:47.911Z,102070.13
2022-10-11T15:28:25.897Z,102070.38
2022-10-11T15:30:57.241Z,102066.44
2022-10-11T15:33:26.766Z,102067.25
2022-10-11T15:35:56.116Z,102066.19
2022-10-11T15:39:05.074Z,102064.97
2022-10-11T15:41:33.689Z,102066.19
2022-10-11T15:47:58.787Z,102060.09
2022-10-11T15:50:38.635Z,102062.53
2022-10-11T15:53:38.452Z,102059.78
2022-10-11T15:56:17.648Z,102045.47
2022-10-11T15:58:48.354Z,102045.94
2022-10-11T16:04:56.855Z,102029.03
2022-10-11T16:10:35.308Z,102029.31
2022-10-11T16:13:03.837Z,102022.50
2022-10-11T16:15:34.421Z,102023.84
2022-10-11T16:18:03.195Z,102027.59
2022-10-11T16:20:35.058Z,102022.78
2022-10-11T16:23:11.728Z,102025.44
2022-10-11T16:25:40.478Z,102020.69
2022-10-11T16:28:26.324Z,102016.84
2022-10-11T16:34:57.361Z,102015.81
2022-10-11T17:04:08.612Z,101995.44
2022-10-11T17:06:54.500Z,101998.56
2022-10-11T17:09:42.902Z,101996.88
2022-10-11T17:12:33.661Z,101989.53
2022-10-11T17:15:13.555Z,101985.81
2022-10-11T17:17:44.866Z,101989.47
2022-10-11T17:29:32.758Z,101968.06
2022-10-11T17:32:02.161Z,101968.97
2022-10-11T17:34:30.620Z,101960.88
2022-10-11T17:37:04.122Z,101962.56
2022-10-11T17:39:32.227Z,101966.22
2022-10-11T17:42:13.369Z,101965.22
2022-10-11T17:44:42.005Z,101963.19
2022-10-11T17:47:10.573Z,101956.31
2022-10-11T17:49:39.576Z,101964.78
2022-10-11T17:52:09.584Z,101968.72
2022-10-11T17:54:40.910Z,101967.53
2022-10-11T17:57:09.509Z,101962.94
2022-10-11T17:59:39.237Z,101952.22
2022-10-11T18:02:07.922Z,101965.97
2022-10-11T18:04:37.681Z,101958.22
2022-10-11T18:07:06.292Z,101963.94
2022-10-11T18:09:36.952Z,101963.31
2022-10-11T18:12:06.020Z,101961.38
2022-10-11T18:14:34.610Z,101972.94
2022-10-11T18:17:53.588Z,101970.03
2022-10-11T18:20:23.769Z,101969.19
2022-10-11T18:23:09.794Z,101974.97
2022-10-11T18:25:45.217Z,101971.19
2022-10-11T18:28:17.954Z,101974.66
2022-10-11T18:30:53.437Z,101971.72
2022-10-11T18:33:21.645Z,101975.91
2022-10-11T18:35:50.083Z,101975.28
2022-10-11T18:38:20.656Z,101969.31
2022-10-11T18:40:50.533Z,101974.81
2022-10-11T18:43:27.434Z,101980.47
2022-10-11T18:46:05.663Z,101981.56
2022-10-11T18:48:34.750Z,101985.47
2022-10-11T18:51:05.223Z,101979.25
2022-10-11T18:53:34.534Z,101973.75
2022-10-11T18:56:07.333Z,101970.69
2022-10-11T18:58:37.551Z,101968.59
2022-10-11T19:01:06.805Z,101978.50
2022-10-11T19:03:37.076Z,101975.03
2022-10-11T19:06:06.646Z,101977.63
2022-10-11T19:08:36.650Z,101969.66
2022-10-11T19:11:10.144Z,101976.03
2022-10-11T19:13:38.275Z,101974.31
2022-10-11T19:16:13.497Z,101968.22
2022-10-11T19:18:50.582Z,101962.22
2022-10-11T19:21:25.558Z,101956.22
2022-10-11T19:24:17.467Z,101953.53
2022-10-11T19:26:47.970Z,101946.44
2022-10-11T19:29:20.245Z,101945.44
2022-10-11T19:31:51.074Z,101950.97
2022-10-11T19:34:20.273Z,101953.66
2022-10-11T19:36:50.822Z,101935.81
2022-10-11T19:39:20.161Z,101942.03
2022-10-11T19:41:50.894Z,101945.44
2022-10-11T19:44:19.764Z,101940.91
2022-10-11T19:46:52.329Z,101938.13
2022-10-11T19:49:22.861Z,101930.78
2022-10-11T19:51:56.710Z,101922.84
2022-10-11T19:54:53.660Z,101930.66
2022-10-11T19:57:23.517Z,101933.97
2022-10-11T19:59:53.204Z,101934.09
2022-10-11T20:02:32.336Z,101939.56
2022-10-11T20:05:27.159Z,101937.88
2022-10-11T20:08:28.647Z,101941.31
2022-10-11T20:10:57.373Z,101940.44
2022-10-11T20:13:42.397Z,101947.53
2022-10-11T20:16:12.863Z,101942.16
2022-10-11T20:18:44.447Z,101948.13
2022-10-11T20:21:23.557Z,101945.44
2022-10-11T20:24:35.871Z,101946.19
2022-10-11T20:27:21.772Z,101938.97
2022-10-11T20:29:51.526Z,101944.25
2022-10-11T20:32:19.950Z,101946.84
2022-10-11T20:34:48.364Z,101946.72
2022-10-11T20:37:16.698Z,101951.13
2022-10-11T20:39:44.820Z,101952.72
2022-10-11T20:42:16.440Z,101951.84
2022-10-11T20:44:45.159Z,101955.50
2022-10-11T20:47:17.832Z,101951.72
2022-10-11T20:49:46.493Z,101954.44
2022-10-11T20:52:14.684Z,101949.13
2022-10-11T20:54:45.732Z,101957.13
2022-10-11T20:57:14.317Z,101954.53
2022-10-11T20:59:42.702Z,101952.72
2022-10-11T21:02:16.607Z,101946.34
2022-10-11T21:04:48.764Z,101953.81
2022-10-11T21:07:17.137Z,101957.22
2022-10-11T21:09:48.592Z,101956.38
2022-10-11T21:12:16.976Z,101960.03
2022-10-11T21:14:46.135Z,101958.09
2022-10-11T21:17:15.419Z,101958.09
2022-10-11T21:19:44.189Z,101952.59
2022-10-11T21:22:14.492Z,101950.88
2022-10-11T21:24:45.510Z,101951.84
2022-10-11T21:27:14.833Z,101951.59
2022-10-11T21:29:43.125Z,101951.84
2022-10-11T21:32:14.551Z,101949.28
2022-10-11T21:34:49.444Z,101951.84
2022-10-11T21:37:20.753Z,101953.56
2022-10-11T21:39:51.888Z,101959.06
2022-10-11T21:42:24.766Z,101956.38
2022-10-11T21:44:59.696Z,101951.84
2022-10-11T21:47:28.252Z,101948.56
2022-10-11T21:49:57.248Z,101945.13
2022-10-11T21:52:28.357Z,101943.50
2022-10-11T21:54:58.327Z,101939.09
2022-10-11T21:57:26.545Z,101934.81
2022-10-11T21:59:56.079Z,101923.19
2022-10-11T22:02:24.811Z,101897.13
2022-10-11T22:04:53.192Z,101903.63
2022-10-11T22:07:25.342Z,101900.19
2022-10-11T22:09:55.051Z,101892.88
2022-10-11T22:12:23.222Z,101899.81
2022-10-11T22:14:51.604Z,101899.69
2022-10-11T22:17:21.705Z,101899.50
2022-10-11T22:19:50.170Z,101883.34
2022-10-11T22:22:18.415Z,101895.06
2022-10-11T22:24:46.727Z,101894.97
2022-10-11T22:27:17.058Z,101897.50
2022-10-11T22:29:48.134Z,101899.34
2022-10-11T22:32:16.331Z,101901.94
2022-10-11T22:34:44.753Z,101900.34
2022-10-11T22:37:13.018Z,101899.97
2022-10-11T22:39:41.295Z,101899.25
2022-10-11T22:42:12.759Z,101903.50
2022-10-11T22:44:42.675Z,101891.19
2022-10-11T22:47:11.124Z,101884.81
2022-10-11T22:49:39.485Z,101884.81
2022-10-11T22:52:07.902Z,101884.81
2022-10-11T22:54:36.641Z,101881.38
2022-10-11T22:57:05.374Z,101879.66
2022-10-11T22:59:33.749Z,101883.34
2022-10-11T23:02:04.560Z,101867.41
2022-10-11T23:04:32.876Z,101871.06
2022-10-11T23:07:04.754Z,101865.81
2022-10-11T23:09:33.471Z,101867.66
2022-10-11T23:12:02.379Z,101862.28
2022-10-11T23:14:30.685Z,101846.84
2022-10-11T23:16:59.064Z,101847.13
2022-10-11T23:19:29.130Z,101839.06
2022-10-11T23:21:58.496Z,101835.59
2022-10-11T23:24:28.199Z,101833.91
2022-10-11T23:26:56.562Z,101833.91
2022-10-11T23:29:25.334Z,101839.53
2022-10-11T23:31:53.788Z,101842.22
2022-10-11T23:34:22.016Z,101842.09
2022-10-11T23:36:51.821Z,101844.66
2022-10-11T23:39:23.039Z,101843.69
2022-10-11T23:41:51.667Z,101838.44
2022-10-11T23:44:20.145Z,101843.81
2022-10-11T23:46:51.568Z,101841.00
2022-10-11T23:49:22.270Z,101839.06
2022-10-11T23:51:52.228Z,101835.38
2022-10-11T23:54:20.486Z,101834.25
2022-10-11T23:56:48.754Z,101840.47
2022-10-11T23:59:17.119Z,101834.38
